createdAt,value
2022-10-10T00:01:41.708Z,3.70
2022-10-10T00:04:09.923Z,3.67
2022-10-10T00:06:38.091Z,4.05
2022-10-10T00:09:07.081Z,3.42
2022-10-10T00:11:36.782Z,3.60
2022-10-10T00:14:05.268Z,3.67
2022-10-10T00:16:35.124Z,3.33
2022-10-10T00:19:03.561Z,3.57
2022-10-10T00:21:31.702Z,4.23
2022-10-10T00:24:00.649Z,3.40
2022-10-10T00:26:29.071Z,3.20
2022-10-10T00:28:57.288Z,3.75
2022-10-10T00:31:25.765Z,3.60
2022-10-10T00:33:55.265Z,3.45
2022-10-10T00:36:23.370Z,3.50
2022-10-10T00:38:51.525Z,3.03
2022-10-10T00:41:19.790Z,3.10
2022-10-10T00:44:07.832Z,3.92
2022-10-10T00:46:36.532Z,3.25
2022-10-10T00:49:12.682Z,3.53
2022-10-10T00:51:41.766Z,3.83
2022-10-10T00:54:13.759Z,3.30
2022-10-10T00:56:48.291Z,3.30
2022-10-10T00:59:18.437Z,4.40
2022-10-10T01:01:47.345Z,3.25
2022-10-10T01:04:34.093Z,3.20
2022-10-10T01:07:06.772Z,3.25
2022-10-10T01:09:38.170Z,3.57
2022-10-10T01:12:21.417Z,3.20
2022-10-10T01:15:02.937Z,3.33
2022-10-10T01:17:39.221Z,3.42
2022-10-10T01:20:44.086Z,3.53
2022-10-10T01:24:11.069Z,4.33
2022-10-10T01:27:08.860Z,3.77
2022-10-10T01:29:45.431Z,3.43
2022-10-10T01:32:23.512Z,3.73
2022-10-10T01:35:07.976Z,3.87
2022-10-10T01:37:44.224Z,3.80
2022-10-10T01:40:23.734Z,3.80
2022-10-10T01:42:56.681Z,4.03
2022-10-10T01:45:27.798Z,4.27
2022-10-10T01:48:00.168Z,3.50
2022-10-10T01:50:28.957Z,3.97
2022-10-10T01:53:12.540Z,3.70
2022-10-10T01:55:58.370Z,4.07
2022-10-10T01:58:55.116Z,3.95
2022-10-10T02:01:34.086Z,3.60
2022-10-10T02:04:14.634Z,3.57
2022-10-10T02:06:51.836Z,3.93
2022-10-10T02:09:27.651Z,3.63
2022-10-10T02:11:57.785Z,3.50
2022-10-10T02:14:33.145Z,3.80
2022-10-10T02:17:05.785Z,4.00
2022-10-10T02:19:34.610Z,3.77
2022-10-10T02:22:04.119Z,3.77
2022-10-10T02:24:32.450Z,3.83
2022-10-10T02:27:09.121Z,3.90
2022-10-10T02:29:40.112Z,4.03
2022-10-10T02:32:15.025Z,3.90
2022-10-10T02:34:49.126Z,3.97
2022-10-10T02:37:18.324Z,4.00
2022-10-10T02:39:51.104Z,3.90
2022-10-10T02:42:24.391Z,4.07
2022-10-10T02:44:53.204Z,3.90
2022-10-10T02:47:22.877Z,4.00
2022-10-10T02:49:51.833Z,3.90
2022-10-10T02:52:20.139Z,3.93
2022-10-10T02:54:48.348Z,3.60
2022-10-10T02:57:16.449Z,4.40
2022-10-10T02:59:44.621Z,4.70
2022-10-10T03:02:12.912Z,3.67
2022-10-10T03:04:44.725Z,4.03
2022-10-10T03:07:13.631Z,4.20
2022-10-10T03:09:41.990Z,4.20
2022-10-10T03:12:10.466Z,4.67
2022-10-10T03:14:38.745Z,4.30
2022-10-10T03:17:07.021Z,3.87
2022-10-10T03:19:35.384Z,4.20
2022-10-10T03:22:04.978Z,4.67
2022-10-10T03:24:33.304Z,4.10
2022-10-10T03:27:01.585Z,4.07
2022-10-10T03:29:29.776Z,4.43
2022-10-10T03:31:58.165Z,4.67
2022-10-10T03:34:27.082Z,4.60
2022-10-10T03:36:55.831Z,4.80
2022-10-10T03:39:25.545Z,4.67
2022-10-10T03:41:53.621Z,4.40
2022-10-10T03:44:21.775Z,4.93
2022-10-10T03:46:50.089Z,4.90
2022-10-10T03:49:18.315Z,4.87
2022-10-10T03:51:46.494Z,4.80
2022-10-10T03:54:14.627Z,4.50
2022-10-10T03:56:44.099Z,4.63
2022-10-10T03:59:12.629Z,4.47
2022-10-10T04:01:41.095Z,5.10
2022-10-10T04:04:09.418Z,4.60
2022-10-10T04:06:37.567Z,4.57
2022-10-10T04:09:05.874Z,5.07
2022-10-10T04:11:35.221Z,5.50
2022-10-10T04:14:04.858Z,4.87
2022-10-10T04:16:33.166Z,5.27
2022-10-10T04:19:01.362Z,4.87
2022-10-10T04:21:29.456Z,4.63
2022-10-10T04:23:57.591Z,5.07
2022-10-10T04:26:25.701Z,4.47
2022-10-10T04:28:53.887Z,5.17
2022-10-10T04:31:23.925Z,5.03
2022-10-10T04:33:52.576Z,4.97
2022-10-10T04:36:20.652Z,5.00
2022-10-10T04:38:48.786Z,4.93
2022-10-10T04:41:16.916Z,5.10
2022-10-10T04:43:45.275Z,4.90
2022-10-10T04:46:13.355Z,5.67
2022-10-10T04:48:42.915Z,5.27
2022-10-10T04:51:11.779Z,4.97
2022-10-10T04:53:40.077Z,5.27
2022-10-10T04:56:08.372Z,5.17
2022-10-10T04:58:36.565Z,4.87
2022-10-10T05:01:05.761Z,4.90
2022-10-10T05:03:33.969Z,5.23
2022-10-10T05:06:03.445Z,5.00
2022-10-10T05:08:31.537Z,5.20
2022-10-10T05:10:59.953Z,5.27
2022-10-10T05:13:28.421Z,5.17
2022-10-10T05:15:56.659Z,5.23
2022-10-10T05:18:24.827Z,5.50
2022-10-10T05:20:52.900Z,5.60
2022-10-10T05:23:22.305Z,5.03
2022-10-10T05:25:51.780Z,5.60
2022-10-10T05:28:20.026Z,5.90
2022-10-10T05:30:48.311Z,5.73
2022-10-10T05:33:16.421Z,5.57
2022-10-10T05:35:44.769Z,5.60
2022-10-10T05:38:12.891Z,4.73
2022-10-10T05:40:43.369Z,5.47
2022-10-10T05:43:12.021Z,5.40
2022-10-10T05:45:40.196Z,5.83
2022-10-10T05:48:08.331Z,6.27
2022-10-10T05:50:41.422Z,5.60
2022-10-10T05:53:09.543Z,6.03
2022-10-10T05:55:37.708Z,6.07
2022-10-10T05:58:07.949Z,5.63
2022-10-10T06:00:36.542Z,5.87
2022-10-10T06:03:05.072Z,5.47
2022-10-10T06:05:33.330Z,5.60
2022-10-10T06:08:10.443Z,6.43
2022-10-10T06:10:42.747Z,5.97
2022-10-10T06:13:14.232Z,6.60
2022-10-10T06:15:43.095Z,5.77
2022-10-10T06:18:12.571Z,6.37
2022-10-10T06:20:42.381Z,6.10
2022-10-10T06:23:10.923Z,5.33
2022-10-10T06:25:40.984Z,6.23
2022-10-10T06:28:10.083Z,6.00
2022-10-10T06:30:42.637Z,6.43
2022-10-10T06:33:12.847Z,5.43
2022-10-10T06:35:43.565Z,5.83
2022-10-10T06:38:12.381Z,5.73
2022-10-10T06:40:41.159Z,5.43
2022-10-10T06:43:11.952Z,5.93
2022-10-10T06:45:43.789Z,5.43
2022-10-10T06:48:14.848Z,5.70
2022-10-10T06:50:43.368Z,5.40
2022-10-10T06:53:11.667Z,5.33
2022-10-10T06:55:46.435Z,4.87
2022-10-10T06:58:15.002Z,4.80
2022-10-10T07:00:51.124Z,4.83
2022-10-10T07:03:20.508Z,5.00
2022-10-10T07:05:53.012Z,4.80
2022-10-10T07:08:22.223Z,5.20
2022-10-10T07:10:50.732Z,4.83
2022-10-10T07:13:19.779Z,4.47
2022-10-10T07:15:49.264Z,4.60
2022-10-10T07:18:19.412Z,4.80
2022-10-10T07:20:47.696Z,5.63
2022-10-10T07:23:15.983Z,4.37
2022-10-10T07:25:44.885Z,4.50
2022-10-10T07:28:13.301Z,4.57
2022-10-10T07:30:43.350Z,4.33
2022-10-10T07:33:14.052Z,4.43
2022-10-10T07:35:42.644Z,4.80
2022-10-10T07:38:12.692Z,4.77
2022-10-10T07:40:41.749Z,4.17
2022-10-10T07:43:10.028Z,4.00
2022-10-10T07:45:38.539Z,4.80
2022-10-10T07:48:06.950Z,4.37
2022-10-10T07:50:36.581Z,4.07
2022-10-10T07:53:06.132Z,4.57
2022-10-10T07:55:34.753Z,4.40
2022-10-10T07:58:03.676Z,4.40
2022-10-10T08:00:33.225Z,4.27
2022-10-10T08:03:01.341Z,4.32
2022-10-10T08:05:29.824Z,4.38
2022-10-10T08:07:59.343Z,4.25
2022-10-10T08:10:28.722Z,4.13
2022-10-10T08:12:56.910Z,4.13
2022-10-10T08:15:26.858Z,4.22
2022-10-10T08:17:57.164Z,4.28
2022-10-10T08:20:25.269Z,4.05
2022-10-10T08:22:53.625Z,4.35
2022-10-10T08:25:23.248Z,4.28
2022-10-10T08:27:51.348Z,4.05
2022-10-10T08:30:19.660Z,4.15
2022-10-10T08:32:47.900Z,4.18
2022-10-10T08:35:16.346Z,4.20
2022-10-10T08:37:44.459Z,3.65
2022-10-10T08:40:17.087Z,4.30
2022-10-10T08:42:53.556Z,3.95
2022-10-10T08:45:27.149Z,4.47
2022-10-10T08:48:01.279Z,3.85
2022-10-10T08:50:35.231Z,4.10
2022-10-10T08:53:09.080Z,3.70
2022-10-10T08:55:40.914Z,4.47
2022-10-10T08:58:20.102Z,3.95
2022-10-10T09:00:52.836Z,4.38
2022-10-10T09:03:31.411Z,4.05
2022-10-10T09:06:31.610Z,4.50
2022-10-10T09:09:18.683Z,4.65
2022-10-10T09:12:03.427Z,4.10
2022-10-10T09:14:46.505Z,4.57
2022-10-10T09:17:37.746Z,3.97
2022-10-10T09:20:22.512Z,3.83
2022-10-10T09:22:56.525Z,4.22
2022-10-10T09:25:35.239Z,4.28
2022-10-10T09:28:13.894Z,4.13
2022-10-10T09:30:51.956Z,4.00
2022-10-10T09:33:30.694Z,4.22
2022-10-10T09:36:03.934Z,3.72
2022-10-10T09:38:38.596Z,4.15
2022-10-10T09:41:15.542Z,3.78
2022-10-10T09:43:44.024Z,4.30
2022-10-10T09:46:13.536Z,4.50
2022-10-10T09:48:43.610Z,3.80
2022-10-10T09:51:17.230Z,4.18
2022-10-10T09:53:48.280Z,3.78
2022-10-10T09:56:19.814Z,3.33
2022-10-10T09:58:50.433Z,4.38
2022-10-10T10:01:24.180Z,3.80
2022-10-10T10:04:30.148Z,4.00
2022-10-10T10:07:08.962Z,4.20
2022-10-10T10:09:38.892Z,3.90
2022-10-10T10:12:07.649Z,4.15
2022-10-10T10:14:39.145Z,3.97
2022-10-10T10:17:13.777Z,4.00
2022-10-10T10:19:45.930Z,4.25
2022-10-10T10:22:36.089Z,3.70
2022-10-10T10:25:35.293Z,3.78
2022-10-10T10:28:20.586Z,3.33
2022-10-10T10:30:49.799Z,3.58
2022-10-10T10:33:39.511Z,3.90
2022-10-10T10:36:32.553Z,3.53
2022-10-10T10:39:16.835Z,3.40
2022-10-10T10:41:54.494Z,3.40
2022-10-10T10:44:37.699Z,3.42
2022-10-10T10:47:29.597Z,3.33
2022-10-10T10:50:24.579Z,3.63
2022-10-10T10:53:05.583Z,3.60
2022-10-10T10:55:44.551Z,4.47
2022-10-10T10:59:16.747Z,3.35
2022-10-10T11:01:58.319Z,3.50
2022-10-10T11:05:23.759Z,3.55
2022-10-10T11:08:03.122Z,3.20
2022-10-10T11:10:44.984Z,2.78
2022-10-10T11:13:23.480Z,3.25
2022-10-10T11:16:09.914Z,2.65
2022-10-10T11:18:53.031Z,2.92
2022-10-10T11:21:27.861Z,3.05
2022-10-10T11:24:06.178Z,2.95
2022-10-10T11:26:40.819Z,2.85
2022-10-10T11:29:17.015Z,3.28
2022-10-10T11:31:52.346Z,2.80
2022-10-10T11:34:28.838Z,2.75
2022-10-10T11:37:05.478Z,3.15
2022-10-10T11:39:43.902Z,2.80
2022-10-10T11:42:20.433Z,3.00
2022-10-10T11:44:55.814Z,3.10
2022-10-10T11:47:33.729Z,3.35
2022-10-10T11:50:11.958Z,3.50
2022-10-10T11:52:53.118Z,3.00
2022-10-10T11:55:30.209Z,3.08
2022-10-10T11:58:33.563Z,3.20
2022-10-10T12:01:16.112Z,2.97
2022-10-10T12:03:45.712Z,3.15
2022-10-10T12:06:25.774Z,2.80
2022-10-10T12:09:02.226Z,3.38
2022-10-10T12:11:41.338Z,3.35
2022-10-10T12:14:16.613Z,3.28
2022-10-10T12:16:46.015Z,3.47
2022-10-10T12:19:20.441Z,3.45
2022-10-10T12:22:00.350Z,3.25
2022-10-10T12:24:31.517Z,3.25
2022-10-10T12:27:31.062Z,4.05
2022-10-10T12:30:25.916Z,3.50
2022-10-10T12:32:55.244Z,3.30
2022-10-10T12:35:40.388Z,3.38
2022-10-10T12:38:22.914Z,3.92
2022-10-10T12:41:13.588Z,3.60
2022-10-10T12:43:52.777Z,4.18
2022-10-10T12:46:29.426Z,3.63
2022-10-10T12:49:05.292Z,3.80
2022-10-10T12:51:37.242Z,3.63
2022-10-10T12:54:08.299Z,3.95
2022-10-10T12:56:45.573Z,3.92
2022-10-10T12:59:25.129Z,3.92
2022-10-10T13:01:59.505Z,3.63
2022-10-10T13:04:28.376Z,3.72
2022-10-10T13:07:01.995Z,3.20
2022-10-10T13:09:36.102Z,3.20
2022-10-10T13:12:07.827Z,3.28
2022-10-10T13:14:42.427Z,3.53
2022-10-10T13:17:28.324Z,4.45
2022-10-10T13:19:59.451Z,4.10
2022-10-10T13:22:30.832Z,3.53
2022-10-10T13:25:01.108Z,3.70
2022-10-10T13:27:32.823Z,3.85
2022-10-10T13:30:03.265Z,4.00
2022-10-10T13:32:37.271Z,4.22
2022-10-10T13:35:14.030Z,4.88
2022-10-10T13:37:43.825Z,4.75
2022-10-10T13:40:16.577Z,4.18
2022-10-10T13:42:48.228Z,4.20
2022-10-10T13:45:38.346Z,3.83
2022-10-10T13:48:22.951Z,4.10
2022-10-10T13:51:11.909Z,3.83
2022-10-10T13:53:53.678Z,4.00
2022-10-10T13:56:28.926Z,4.10
2022-10-10T13:59:08.137Z,4.07
2022-10-10T14:01:41.511Z,4.30
2022-10-10T14:04:21.609Z,3.90
2022-10-10T14:06:59.605Z,3.58
2022-10-10T14:09:38.869Z,3.78
2022-10-10T14:12:18.044Z,3.95
2022-10-10T14:14:48.806Z,3.50
2022-10-10T14:17:18.678Z,3.83
2022-10-10T14:19:49.213Z,3.55
2022-10-10T14:22:18.276Z,3.60
2022-10-10T14:24:47.061Z,3.50
2022-10-10T14:27:25.715Z,3.35
2022-10-10T14:29:58.212Z,4.10
2022-10-10T14:32:27.861Z,3.92
2022-10-10T14:34:56.136Z,3.75
2022-10-10T14:37:28.380Z,3.75
2022-10-10T14:39:57.113Z,3.53
2022-10-10T14:42:26.682Z,3.50
2022-10-10T14:44:54.762Z,3.88
2022-10-10T14:47:25.833Z,3.75
2022-10-10T14:49:57.241Z,3.83
2022-10-10T14:52:25.463Z,4.00
2022-10-10T14:54:53.567Z,3.75
2022-10-10T14:57:22.979Z,4.20
2022-10-10T14:59:51.143Z,3.80
2022-10-10T15:02:21.657Z,3.88
2022-10-10T15:04:50.978Z,3.78
2022-10-10T15:07:20.745Z,3.88
2022-10-10T15:10:31.508Z,3.60
2022-10-10T15:12:41.694Z,4.20
2022-10-10T15:15:12.339Z,4.20
2022-10-10T15:17:40.939Z,4.38
2022-10-10T15:20:12.132Z,3.90
2022-10-10T15:22:42.123Z,4.03
2022-10-10T15:25:11.216Z,4.18
2022-10-10T15:27:39.533Z,3.80
2022-10-10T15:30:09.480Z,3.70
2022-10-10T15:32:40.700Z,3.95
2022-10-10T15:35:14.113Z,4.15
2022-10-10T15:37:44.730Z,3.90
2022-10-10T15:40:15.236Z,4.15
2022-10-10T15:42:43.950Z,4.45
2022-10-10T15:45:12.493Z,3.58
2022-10-10T15:47:46.438Z,4.03
2022-10-10T15:50:15.524Z,4.15
2022-10-10T15:52:44.958Z,4.68
2022-10-10T15:55:13.153Z,3.72
2022-10-10T15:57:41.346Z,4.47
2022-10-10T16:00:10.650Z,4.40
2022-10-10T16:02:41.776Z,4.43
2022-10-10T16:05:10.959Z,4.65
2022-10-10T16:07:47.508Z,5.10
2022-10-10T16:10:17.565Z,4.60
2022-10-10T16:12:45.815Z,3.92
2022-10-10T16:15:14.217Z,4.90
2022-10-10T16:17:42.342Z,4.85
2022-10-10T16:20:11.791Z,4.47
2022-10-10T16:22:39.945Z,4.80
2022-10-10T16:25:24.048Z,5.18
2022-10-10T16:27:53.595Z,5.25
2022-10-10T16:30:22.072Z,5.25
2022-10-10T16:32:50.592Z,5.40
2022-10-10T16:35:18.912Z,5.95
2022-10-10T16:37:46.990Z,5.60
2022-10-10T16:40:15.141Z,6.38
2022-10-10T16:42:43.306Z,6.88
2022-10-10T16:45:13.595Z,6.80
2022-10-10T16:47:41.898Z,6.80
2022-10-10T16:50:11.109Z,6.53
2022-10-10T16:52:39.189Z,6.85
2022-10-10T16:55:08.897Z,6.60
2022-10-10T16:57:37.768Z,7.30
2022-10-10T17:00:08.905Z,7.13
2022-10-10T17:02:41.989Z,7.20
2022-10-10T17:05:10.559Z,7.10
2022-10-10T17:07:38.698Z,7.82
2022-10-10T17:10:08.048Z,8.13
2022-10-10T17:12:36.370Z,7.95
2022-10-10T17:15:05.500Z,9.00
2022-10-10T17:17:35.218Z,9.30
2022-10-10T17:20:07.162Z,8.32
2022-10-10T17:22:35.992Z,10.15
2022-10-10T17:25:05.023Z,11.13
2022-10-10T17:27:34.980Z,9.48
2022-10-10T17:30:03.205Z,9.10
2022-10-10T17:32:31.317Z,7.53
2022-10-10T17:34:59.506Z,5.65
2022-10-10T17:37:29.038Z,2.85
2022-10-10T17:39:57.128Z,2.67
2022-10-10T17:42:25.261Z,2.85
2022-10-10T17:44:56.719Z,2.60
2022-10-10T17:47:24.824Z,2.50
2022-10-10T17:49:53.040Z,3.25
2022-10-10T17:52:21.688Z,2.20
2022-10-10T17:54:51.330Z,2.78
2022-10-10T17:57:20.572Z,2.72
2022-10-10T17:59:48.731Z,2.58
2022-10-10T18:02:19.348Z,2.63
2022-10-10T18:04:47.415Z,2.75
2022-10-10T18:07:18.469Z,2.60
2022-10-10T18:09:47.121Z,2.58
2022-10-10T18:12:16.615Z,2.45
2022-10-10T18:14:44.836Z,2.58
2022-10-10T18:17:13.858Z,2.72
2022-10-10T18:19:42.005Z,2.95
2022-10-10T18:22:10.110Z,2.30
2022-10-10T18:24:38.389Z,3.15
2022-10-10T18:27:06.530Z,2.95
2022-10-10T18:29:36.354Z,2.92
2022-10-10T18:32:05.030Z,3.15
2022-10-10T18:34:33.086Z,3.35
2022-10-10T18:37:01.188Z,3.42
2022-10-10T18:39:33.035Z,2.80
2022-10-10T18:42:01.619Z,3.10
2022-10-10T18:44:30.128Z,3.20
2022-10-10T18:46:59.632Z,3.03
2022-10-10T18:49:28.311Z,3.50
2022-10-10T18:51:56.841Z,3.85
2022-10-10T18:54:27.118Z,3.42
2022-10-10T18:56:55.327Z,3.60
2022-10-10T18:59:23.773Z,3.10
2022-10-10T19:01:52.741Z,4.22
2022-10-10T19:04:22.962Z,3.38
2022-10-10T19:06:57.124Z,3.92
2022-10-10T19:09:26.662Z,3.95
2022-10-10T19:11:55.120Z,3.58
2022-10-10T19:14:23.331Z,4.43
2022-10-10T19:16:51.782Z,5.00
2022-10-10T19:19:22.264Z,3.75
2022-10-10T19:21:51.130Z,4.28
2022-10-10T19:24:21.522Z,4.38
2022-10-10T19:26:56.866Z,4.28
2022-10-10T19:29:27.428Z,5.25
2022-10-10T19:31:56.229Z,4.55
2022-10-10T19:34:25.942Z,3.92
2022-10-10T19:36:54.480Z,4.68
2022-10-10T19:39:23.536Z,5.97
2022-10-10T19:41:51.983Z,4.20
2022-10-10T19:44:20.081Z,4.20
2022-10-10T19:46:48.574Z,4.38
2022-10-10T19:49:16.713Z,4.53
2022-10-10T19:51:46.242Z,4.00
2022-10-10T19:54:14.533Z,4.47
2022-10-10T19:56:42.890Z,4.43
2022-10-10T19:59:11.062Z,5.30
2022-10-10T20:01:39.265Z,4.35
2022-10-10T20:04:07.571Z,4.25
2022-10-10T20:06:35.989Z,4.95
2022-10-10T20:09:10.411Z,4.43
2022-10-10T20:11:39.998Z,4.47
2022-10-10T20:14:08.764Z,4.20
2022-10-10T20:16:36.989Z,4.47
2022-10-10T20:19:05.484Z,4.07
2022-10-10T20:21:35.424Z,3.78
2022-10-10T20:24:09.334Z,3.70
2022-10-10T20:26:37.908Z,4.22
2022-10-10T20:29:06.971Z,4.00
2022-10-10T20:31:37.704Z,3.78
2022-10-10T20:34:07.350Z,3.75
2022-10-10T20:36:36.824Z,4.40
2022-10-10T20:39:09.477Z,3.95
2022-10-10T20:41:39.607Z,4.20
2022-10-10T20:44:09.817Z,3.65
2022-10-10T20:46:41.437Z,3.80
2022-10-10T20:49:15.406Z,3.83
2022-10-10T20:51:48.391Z,4.35
2022-10-10T20:54:20.559Z,3.83
2022-10-10T20:56:49.703Z,5.38
2022-10-10T20:59:19.331Z,4.63
2022-10-10T21:01:48.326Z,4.50
2022-10-10T21:04:16.791Z,4.53
2022-10-10T21:06:45.129Z,4.38
2022-10-10T21:09:17.119Z,4.72
2022-10-10T21:11:48.709Z,4.30
2022-10-10T21:14:19.186Z,4.32
2022-10-10T21:16:48.269Z,4.70
2022-10-10T21:19:16.709Z,4.45
2022-10-10T21:21:44.838Z,4.63
2022-10-10T21:24:13.919Z,3.58
2022-10-10T21:26:45.433Z,4.75
2022-10-10T21:29:13.812Z,4.45
2022-10-10T21:31:42.788Z,4.10
2022-10-10T21:34:16.864Z,4.60
2022-10-10T21:36:45.307Z,4.20
2022-10-10T21:39:13.714Z,4.63
2022-10-10T21:41:43.418Z,4.22
2022-10-10T21:44:12.013Z,4.60
2022-10-10T21:46:40.163Z,4.22
2022-10-10T21:49:11.355Z,4.28
2022-10-10T21:51:42.283Z,3.90
2022-10-10T21:54:10.987Z,5.13
2022-10-10T21:56:39.764Z,4.20
2022-10-10T21:59:09.334Z,4.60
2022-10-10T22:01:37.613Z,4.22
2022-10-10T22:04:06.953Z,4.47
2022-10-10T22:06:35.410Z,4.22
2022-10-10T22:09:04.995Z,3.90
2022-10-10T22:11:35.369Z,4.28
2022-10-10T22:14:04.431Z,4.55
2022-10-10T22:16:35.540Z,4.15
2022-10-10T22:19:05.300Z,4.30
2022-10-10T22:21:34.963Z,4.78
2022-10-10T22:24:07.811Z,3.72
2022-10-10T22:26:36.675Z,3.88
2022-10-10T22:29:05.564Z,4.40
2022-10-10T22:31:37.638Z,3.70
2022-10-10T22:34:06.935Z,3.67
2022-10-10T22:36:35.462Z,3.47
2022-10-10T22:39:04.575Z,3.65
2022-10-10T22:41:32.702Z,3.60
2022-10-10T22:44:00.866Z,3.60
2022-10-10T22:46:29.047Z,3.60
2022-10-10T22:48:58.833Z,4.32
2022-10-10T22:51:26.934Z,4.60
2022-10-10T22:53:55.106Z,3.90
2022-10-10T22:56:23.277Z,4.95
2022-10-10T22:58:52.396Z,3.50
2022-10-10T23:01:23.327Z,3.15
2022-10-10T23:03:54.566Z,3.40
2022-10-10T23:06:24.488Z,4.22
2022-10-10T23:08:53.596Z,3.45
2022-10-10T23:11:21.735Z,3.50
2022-10-10T23:13:49.831Z,3.83
2022-10-10T23:16:18.242Z,4.00
2022-10-10T23:18:46.320Z,3.47
2022-10-10T23:21:14.536Z,3.30
2022-10-10T23:23:44.067Z,3.23
2022-10-10T23:26:13.169Z,2.90
2022-10-10T23:28:44.733Z,3.60
2022-10-10T23:31:14.405Z,3.20
2022-10-10T23:33:42.668Z,3.47
2022-10-10T23:36:15.765Z,3.28
2022-10-10T23:38:45.383Z,3.45
2022-10-10T23:41:14.520Z,3.45
2022-10-10T23:43:42.817Z,3.93
2022-10-10T23:46:11.054Z,3.80
2022-10-10T23:48:39.552Z,4.07
2022-10-10T23:51:07.966Z,3.40
2022-10-10T23:53:36.567Z,3.25
2022-10-10T23:56:06.879Z,3.57
2022-10-10T23:58:35.854Z,2.97
